Time;durP1;ratioP1;P1;durP2;ratioP2;P2;SDS_P1;SDS_P2;PMS_P1;PMS_P2;Temp;Humidity;BMP_temperature;BMP_pressure;BME280_temperature;BME280_humidity;BME280_pressure;Samples;Min_cycle;Max_cycle;Signal;HPM_P1;HPM_P2
2023/02/04 00:00:04;;;;;;;22.10;3.70;;;;;;;4.47;93.17;101973.79;108063;1254;71560;-76
2023/02/04 00:02:31;;;;;;;21.00;3.80;;;;;;;4.46;93.19;101981.45;108437;1254;60428;-76
2023/02/04 00:04:58;;;;;;;25.10;4.00;;;;;;;4.48;93.16;101981.48;108274;1253;59575;-75
2023/02/04 00:07:25;;;;;;;20.00;4.40;;;;;;;4.49;92.90;101985.61;109131;1254;74392;-75
2023/02/04 00:09:52;;;;;;;23.60;4.20;;;;;;;4.48;92.68;101989.54;108851;1254;70213;-74
2023/02/04 00:12:18;;;;;;;18.30;3.70;;;;;;;4.47;92.47;101995.72;107933;1254;72403;-75
2023/02/04 00:14:45;;;;;;;18.00;3.40;;;;;;;4.45;92.09;101999.52;109089;1253;61048;-75
2023/02/04 00:17:12;;;;;;;18.70;2.60;;;;;;;4.44;92.02;101999.06;108099;1254;61235;-75
2023/02/04 00:19:40;;;;;;;15.00;2.90;;;;;;;4.46;91.89;102003.52;108241;1253;75964;-76
2023/02/04 00:22:08;;;;;;;15.30;3.20;;;;;;;4.46;92.27;102011.20;107958;1253;70184;-76
2023/02/04 00:24:36;;;;;;;14.50;2.30;;;;;;;4.45;92.35;102016.34;108029;1254;71166;-75
2023/02/04 00:27:04;;;;;;;10.40;2.20;;;;;;;4.42;92.08;102012.73;107807;1253;61250;-75
2023/02/04 00:29:31;;;;;;;14.20;2.50;;;;;;;4.38;92.28;102009.48;108050;1255;61225;-76
2023/02/04 00:31:58;;;;;;;12.10;2.40;;;;;;;4.32;92.54;102020.39;107884;1254;75511;-76
2023/02/04 00:34:25;;;;;;;10.30;2.50;;;;;;;4.27;92.93;102034.70;107826;1254;71662;-77
2023/02/04 00:36:51;;;;;;;11.00;2.90;;;;;;;4.24;93.07;102033.17;108106;1254;72975;-76
2023/02/04 00:39:18;;;;;;;13.60;2.50;;;;;;;4.22;93.46;102035.73;108021;1253;61219;-75
2023/02/04 00:41:46;;;;;;;8.40;2.10;;;;;;;4.21;93.47;102039.15;107885;1254;61302;-76
2023/02/04 00:44:15;;;;;;;11.20;2.00;;;;;;;4.20;93.60;102046.55;108195;1254;74370;-77
2023/02/04 00:46:42;;;;;;;8.10;1.70;;;;;;;4.17;93.63;102049.23;107895;1254;72779;-76
2023/02/04 00:49:10;;;;;;;9.10;2.20;;;;;;;4.18;93.50;102060.73;107801;1253;72684;-78
2023/02/04 00:51:38;;;;;;;10.70;2.20;;;;;;;4.18;93.80;102072.25;107985;1254;61341;-76
2023/02/04 00:54:06;;;;;;;10.70;1.80;;;;;;;4.19;93.96;102073.09;108156;1254;58762;-77
2023/02/04 00:56:33;;;;;;;10.10;2.00;;;;;;;4.20;93.76;102078.94;108032;1254;75567;-76
2023/02/04 00:59:00;;;;;;;12.20;2.00;;;;;;;4.23;93.66;102091.89;107739;1256;70121;-75
2023/02/04 01:01:27;;;;;;;9.60;1.70;;;;;;;4.25;93.19;102096.84;107874;1254;72396;-76
2023/02/04 01:03:54;;;;;;;6.10;1.50;;;;;;;4.25;92.47;102102.42;108018;1253;61252;-75
2023/02/04 01:06:21;;;;;;;6.50;1.30;;;;;;;4.26;91.84;102108.65;108112;1252;61304;-75
2023/02/04 01:08:48;;;;;;;7.60;1.20;;;;;;;4.26;91.46;102115.71;108099;1254;73658;-76
2023/02/04 01:11:15;;;;;;;3.70;0.90;;;;;;;4.26;91.22;102118.10;107867;1254;71016;-77
2023/02/04 01:13:42;;;;;;;5.60;0.90;;;;;;;4.27;90.78;102132.10;107842;1253;71405;-76
2023/02/04 01:16:09;;;;;;;5.20;0.70;;;;;;;4.28;90.86;102140.77;107995;1253;61234;-76
2023/02/04 01:18:36;;;;;;;4.90;1.10;;;;;;;4.28;90.94;102148.27;108092;1253;59424;-77
2023/02/04 01:21:03;;;;;;;3.50;1.00;;;;;;;4.28;91.18;102157.23;107927;1254;73273;-76
2023/02/04 01:23:30;;;;;;;5.00;1.00;;;;;;;4.27;91.36;102166.21;108190;1254;70982;-75
2023/02/04 01:25:57;;;;;;;4.20;1.10;;;;;;;4.26;91.48;102172.42;107868;1254;73925;-76
2023/02/04 01:28:23;;;;;;;5.40;1.00;;;;;;;4.25;91.46;102174.27;108036;1252;61160;-77
2023/02/04 01:30:50;;;;;;;2.00;0.60;;;;;;;4.26;91.50;102174.91;107991;1254;61227;-77
2023/02/04 01:33:17;;;;;;;5.10;0.90;;;;;;;4.24;91.46;102178.34;107804;1254;74905;-76
2023/02/04 01:35:45;;;;;;;3.10;0.70;;;;;;;4.25;91.29;102178.63;108023;1254;71179;-77
2023/02/04 01:38:12;;;;;;;3.20;0.70;;;;;;;4.26;91.09;102183.64;108040;1253;71509;-77
2023/02/04 01:40:39;;;;;;;3.70;0.70;;;;;;;4.27;90.99;102181.84;107896;1254;61165;-75
2023/02/04 01:43:06;;;;;;;2.40;0.70;;;;;;;4.26;91.17;102185.05;107988;1252;61253;-78
2023/02/04 01:45:34;;;;;;;3.60;0.90;;;;;;;4.22;90.42;102187.05;107919;1253;74649;-76
2023/02/04 01:48:06;;;;;;;2.10;0.70;;;;;;;4.20;90.54;102195.55;108225;1253;71611;-77
2023/02/04 01:50:33;;;;;;;3.20;0.70;;;;;;;4.18;90.62;102203.73;107863;1253;71994;-78
2023/02/04 01:53:00;;;;;;;3.50;0.70;;;;;;;4.17;90.73;102205.77;107727;1254;60756;-77
2023/02/04 01:55:31;;;;;;;3.00;0.80;;;;;;;4.15;90.87;102214.80;108091;1254;61175;-77
2023/02/04 01:57:58;;;;;;;2.30;0.60;;;;;;;4.16;90.81;102225.27;108146;1253;73129;-77
2023/02/04 02:00:28;;;;;;;3.20;1.00;;;;;;;4.17;90.91;102231.34;108050;1251;69708;-76
2023/02/04 02:02:56;;;;;;;4.20;1.20;;;;;;;4.17;90.57;102235.68;107694;1253;71484;-77
2023/02/04 02:05:37;;;;;;;4.10;1.20;;;;;;;4.18;90.39;102236.85;107958;1252;61359;-78
2023/02/04 02:08:06;;;;;;;2.80;1.00;;;;;;;4.21;90.39;102242.96;108592;1253;61259;-78
2023/02/04 02:10:34;;;;;;;3.40;1.00;;;;;;;4.19;89.42;102253.92;108616;1254;74684;-77
2023/02/04 02:13:01;;;;;;;2.40;0.90;;;;;;;4.20;89.10;102259.13;108435;1253;70294;-78
2023/02/04 02:15:28;;;;;;;4.50;0.90;;;;;;;4.22;89.54;102266.34;108187;1253;71448;-77
2023/02/04 02:17:55;;;;;;;3.90;0.90;;;;;;;4.21;89.08;102269.91;108177;1254;61232;-77
2023/02/04 02:20:24;;;;;;;2.00;0.80;;;;;;;4.23;89.13;102274.17;108129;1253;61122;-76
2023/02/04 02:23:10;;;;;;;3.10;1.00;;;;;;;4.21;88.73;102273.05;107884;1254;74355;-76
2023/02/04 02:25:37;;;;;;;1.30;0.50;;;;;;;4.21;88.25;102274.83;108084;1253;70367;-77
2023/02/04 02:28:09;;;;;;;2.40;0.80;;;;;;;4.19;87.15;102281.62;108165;1252;72135;-76
2023/02/04 02:30:37;;;;;;;1.30;0.40;;;;;;;4.16;85.76;102286.58;107803;1254;60857;-77
2023/02/04 02:33:05;;;;;;;2.10;0.60;;;;;;;4.13;85.19;102293.88;107711;1254;61365;-81
2023/02/04 02:35:32;;;;;;;1.20;0.50;;;;;;;4.12;85.13;102304.14;108045;1253;74921;-78
2023/02/04 02:37:59;;;;;;;1.80;0.60;;;;;;;4.11;85.05;102314.69;108128;1253;71769;-78
2023/02/04 02:40:29;;;;;;;1.70;0.50;;;;;;;4.09;85.02;102323.70;108048;1253;71399;-77
2023/02/04 02:42:56;;;;;;;3.00;0.90;;;;;;;4.05;84.35;102325.36;108078;1254;61121;-78
2023/02/04 02:45:30;;;;;;;1.20;0.60;;;;;;;4.01;83.88;102325.59;107911;1253;61275;-77
2023/02/04 02:47:59;;;;;;;2.90;0.70;;;;;;;3.95;83.47;102327.02;108564;1252;73296;-78
2023/02/04 02:50:29;;;;;;;1.90;0.70;;;;;;;3.89;83.44;102332.77;107836;1257;69710;-78
2023/02/04 02:52:57;;;;;;;1.50;0.70;;;;;;;3.83;82.87;102338.55;107855;1253;72743;-78
2023/02/04 02:55:26;;;;;;;2.70;0.80;;;;;;;3.75;82.26;102346.92;108006;1252;61950;-78
2023/02/04 02:57:54;;;;;;;1.70;0.70;;;;;;;3.66;82.21;102349.67;108002;1254;61307;-77
2023/02/04 03:00:25;;;;;;;3.50;0.80;;;;;;;3.61;82.89;102361.73;107732;1254;73500;-77
2023/02/04 03:03:13;;;;;;;1.40;0.70;;;;;;;3.51;82.35;102359.85;108073;1254;70344;-78
2023/02/04 03:05:43;;;;;;;1.40;0.60;;;;;;;3.38;82.10;102360.06;108256;1254;72392;-76
2023/02/04 03:08:12;;;;;;;2.00;0.70;;;;;;;3.30;82.52;102363.69;108930;1252;61115;-76
2023/02/04 03:10:40;;;;;;;3.10;1.10;;;;;;;3.22;82.78;102367.42;109136;1253;59061;-77
2023/02/04 03:13:07;;;;;;;4.40;1.50;;;;;;;3.14;82.84;102372.91;107864;1254;74950;-76
2023/02/04 03:15:35;;;;;;;2.70;1.20;;;;;;;3.08;83.10;102374.31;108563;1252;70937;-77
2023/02/04 03:18:03;;;;;;;3.30;1.30;;;;;;;3.01;83.59;102379.95;107724;1254;71517;-77
2023/02/04 03:20:30;;;;;;;3.90;1.20;;;;;;;2.95;83.97;102388.47;107881;1255;61358;-77
2023/02/04 03:22:58;;;;;;;2.40;1.00;;;;;;;2.92;84.19;102400.54;107917;1253;60907;-78
2023/02/04 03:25:27;;;;;;;2.30;0.90;;;;;;;2.91;84.17;102406.04;108228;1253;75591;-77
2023/02/04 03:27:55;;;;;;;3.30;1.30;;;;;;;2.89;84.69;102412.23;107807;1254;69954;-76
2023/02/04 03:30:23;;;;;;;2.10;1.00;;;;;;;2.90;84.81;102418.31;107945;1254;70249;-76
2023/02/04 03:32:50;;;;;;;2.20;1.00;;;;;;;2.93;85.08;102425.65;108145;1253;61126;-77
2023/02/04 03:35:17;;;;;;;3.20;1.40;;;;;;;2.98;85.12;102433.08;108740;1256;61170;-78
2023/02/04 03:37:44;;;;;;;7.80;2.60;;;;;;;3.00;85.39;102436.45;108353;1253;73132;-77
2023/02/04 03:40:12;;;;;;;3.90;1.50;;;;;;;3.01;85.39;102444.77;107977;1253;69640;-78
2023/02/04 03:43:01;;;;;;;3.00;1.00;;;;;;;3.02;85.11;102454.02;108066;1253;72371;-76
2023/02/04 03:45:27;;;;;;;2.30;0.80;;;;;;;3.00;85.07;102459.52;107620;1252;60192;-78
2023/02/04 03:48:10;;;;;;;1.40;0.70;;;;;;;2.97;85.04;102468.08;107307;1254;61244;-78
2023/02/04 03:50:37;;;;;;;2.70;0.70;;;;;;;2.95;85.22;102471.17;107129;1254;73651;-77
2023/02/04 03:53:03;;;;;;;1.50;0.70;;;;;;;2.90;85.00;102477.39;107372;1253;69152;-77
2023/02/04 03:55:32;;;;;;;1.20;0.60;;;;;;;2.85;85.18;102478.30;107275;1254;72531;-77
2023/02/04 03:57:59;;;;;;;1.90;0.70;;;;;;;2.81;85.37;102477.62;107101;1253;61193;-77
2023/02/04 04:00:27;;;;;;;1.40;0.80;;;;;;;2.76;85.33;102482.44;107356;1253;61758;-77
2023/02/04 04:02:56;;;;;;;2.10;0.70;;;;;;;2.70;85.51;102488.19;107304;1254;74832;-77
2023/02/04 04:05:24;;;;;;;1.80;0.80;;;;;;;2.64;85.82;102493.21;107197;1254;72471;-76
2023/02/04 04:07:51;;;;;;;2.40;0.80;;;;;;;2.57;85.84;102494.95;106982;1252;71479;-76
2023/02/04 04:10:18;;;;;;;2.20;0.90;;;;;;;2.49;86.12;102499.39;106759;1256;61972;-78
2023/02/04 04:12:45;;;;;;;1.70;0.80;;;;;;;2.40;86.25;102500.37;107334;1254;59945;-77
2023/02/04 04:15:12;;;;;;;3.50;1.00;;;;;;;2.33;86.59;102508.23;107291;1253;74384;-77
2023/02/04 04:17:43;;;;;;;2.10;1.00;;;;;;;2.25;86.67;102515.11;107113;1254;69743;-77
2023/02/04 04:20:11;;;;;;;2.40;1.00;;;;;;;2.18;86.73;102518.76;107416;1252;71148;-76
2023/02/04 04:22:38;;;;;;;2.50;1.20;;;;;;;2.14;87.44;102519.31;107225;1253;60023;-77
2023/02/04 04:25:06;;;;;;;2.60;1.10;;;;;;;2.12;87.51;102523.25;106965;1253;61170;-76
2023/02/04 04:27:33;;;;;;;3.40;1.10;;;;;;;2.11;87.86;102525.73;107323;1253;74637;-77
2023/02/04 04:30:00;;;;;;;2.80;1.10;;;;;;;2.11;88.21;102524.32;106812;1256;69632;-76
2023/02/04 04:32:37;;;;;;;2.90;1.60;;;;;;;2.12;88.33;102523.05;107242;1254;71987;-77
2023/02/04 04:35:07;;;;;;;3.30;1.70;;;;;;;2.12;88.48;102527.58;107119;1252;62464;-76
2023/02/04 04:37:34;;;;;;;6.10;2.50;;;;;;;2.12;88.61;102530.39;107434;1253;61237;-77
2023/02/04 04:40:01;;;;;;;7.50;2.60;;;;;;;2.10;88.53;102534.13;107089;1256;74499;-79
2023/02/04 04:42:28;;;;;;;56.50;32.20;;;;;;;2.08;88.68;102542.27;107104;1252;70081;-78
2023/02/04 04:44:55;;;;;;;21.70;10.00;;;;;;;2.05;88.52;102549.23;107129;1252;71117;-77
2023/02/04 04:47:22;;;;;;;10.60;3.60;;;;;;;1.99;88.72;102552.98;106999;1253;61733;-77
2023/02/04 04:49:49;;;;;;;3.90;1.70;;;;;;;1.93;88.83;102562.36;107082;1253;59585;-77
2023/02/04 04:52:19;;;;;;;2.90;1.60;;;;;;;1.86;88.98;102562.34;107241;1254;75807;-76
2023/02/04 04:54:46;;;;;;;2.50;1.50;;;;;;;1.81;89.29;102569.36;107584;1253;71200;-77
2023/02/04 04:57:13;;;;;;;2.40;1.30;;;;;;;1.76;89.41;102573.97;107071;1254;72471;-76
2023/02/04 04:59:40;;;;;;;2.80;1.10;;;;;;;1.70;89.43;102577.39;106992;1253;61504;-77
2023/02/04 05:02:08;;;;;;;2.80;1.20;;;;;;;1.64;89.44;102579.77;106829;1253;60022;-76
2023/02/04 05:04:38;;;;;;;4.70;1.50;;;;;;;1.55;89.21;102585.54;106992;1252;74636;-79
2023/02/04 05:07:14;;;;;;;3.50;1.40;;;;;;;1.47;89.69;102587.30;107366;1252;69885;-77
2023/02/04 05:09:41;;;;;;;3.70;1.40;;;;;;;1.41;89.85;102588.12;107102;1254;72680;-77
2023/02/04 05:12:19;;;;;;;4.20;1.50;;;;;;;1.33;89.93;102591.24;107596;1253;60201;-77
2023/02/04 05:14:47;;;;;;;3.80;1.40;;;;;;;1.26;90.28;102591.77;107503;1253;60646;-78
2023/02/04 05:17:17;;;;;;;9.10;1.80;;;;;;;1.19;90.48;102595.88;107379;1251;73346;-76
2023/02/04 05:19:44;;;;;;;3.40;1.50;;;;;;;1.13;90.68;102605.72;107253;1252;70856;-76
2023/02/04 05:22:14;;;;;;;3.20;1.60;;;;;;;1.07;91.05;102608.25;107318;1254;72863;-76
2023/02/04 05:24:41;;;;;;;4.40;2.00;;;;;;;1.02;90.96;102608.11;106975;1252;61154;-77
2023/02/04 05:27:08;;;;;;;4.90;2.50;;;;;;;0.97;91.46;102613.19;107442;1252;60066;-77
2023/02/04 05:29:35;;;;;;;5.00;2.20;;;;;;;0.93;91.49;102611.80;107242;1254;73666;-76
2023/02/04 05:32:03;;;;;;;5.70;2.30;;;;;;;0.90;91.82;102619.77;107200;1254;71634;-76
2023/02/04 05:34:30;;;;;;;4.80;2.90;;;;;;;0.87;92.02;102624.61;107040;1252;71151;-77
2023/02/04 05:36:57;;;;;;;27.50;15.30;;;;;;;0.84;91.96;102631.54;107317;1253;61196;-78
2023/02/04 05:39:27;;;;;;;27.80;15.10;;;;;;;0.81;92.28;102636.16;107094;1254;61354;-78
2023/02/04 05:41:54;;;;;;;22.40;13.60;;;;;;;0.77;92.49;102641.73;107145;1253;74976;-78
2023/02/04 05:44:28;;;;;;;10.60;6.90;;;;;;;0.75;92.74;102650.70;107100;1252;70875;-78
2023/02/04 05:47:06;;;;;;;8.70;4.50;;;;;;;0.71;92.80;102659.56;107597;1253;71706;-78
2023/02/04 05:49:53;;;;;;;8.00;4.90;;;;;;;0.67;93.03;102668.26;107147;1253;61221;-78
2023/02/04 05:52:19;;;;;;;8.90;4.70;;;;;;;0.63;92.94;102668.77;107032;1253;273247;-77
2023/02/04 05:54:47;;;;;;;6.10;3.70;;;;;;;0.61;93.23;102666.74;107103;1253;75611;-77
2023/02/04 05:57:14;;;;;;;6.20;3.70;;;;;;;0.59;93.32;102672.40;107010;1253;71861;-77
2023/02/04 05:59:44;;;;;;;4.90;2.30;;;;;;;0.57;93.44;102668.48;107271;1253;74241;-78
2023/02/04 06:02:11;;;;;;;5.80;3.00;;;;;;;0.55;93.25;102673.47;107194;1252;61281;-77
2023/02/04 06:04:38;;;;;;;5.70;2.50;;;;;;;0.53;93.72;102681.19;107507;1252;61208;-77
2023/02/04 06:07:05;;;;;;;5.10;2.90;;;;;;;0.52;93.78;102684.38;107291;1252;73664;-78
2023/02/04 06:09:32;;;;;;;4.90;2.20;;;;;;;0.50;93.88;102685.48;107279;1253;71218;-77
2023/02/04 06:11:59;;;;;;;4.70;2.40;;;;;;;0.49;93.98;102685.70;107054;1253;72361;-77
2023/02/04 06:14:30;;;;;;;4.80;2.70;;;;;;;0.47;94.04;102684.38;107359;1253;61192;-77
2023/02/04 06:16:59;;;;;;;3.70;2.40;;;;;;;0.45;94.10;102686.02;107232;1253;61151;-78
2023/02/04 06:19:27;;;;;;;5.10;2.40;;;;;;;0.42;94.07;102685.80;107670;1254;73178;-78
2023/02/04 06:21:57;;;;;;;5.00;2.80;;;;;;;0.38;94.30;102691.16;107581;1254;69623;-77
2023/02/04 06:24:24;;;;;;;5.30;2.30;;;;;;;0.36;94.22;102699.24;107412;1253;71201;-76
2023/02/04 06:26:52;;;;;;;5.30;2.60;;;;;;;0.34;94.33;102709.79;107047;1255;61337;-77
2023/02/04 06:29:19;;;;;;;4.80;2.10;;;;;;;0.31;94.46;102714.40;107133;1256;61115;-77
2023/02/04 06:31:48;;;;;;;5.80;2.10;;;;;;;0.28;94.38;102716.95;107102;1254;74407;-78
2023/02/04 06:34:20;;;;;;;6.70;2.30;;;;;;;0.25;94.55;102717.77;107056;1253;70435;-77
2023/02/04 06:36:56;;;;;;;5.20;2.40;;;;;;;0.23;94.61;102717.00;107081;1254;71534;-78
2023/02/04 06:39:22;;;;;;;3.70;2.40;;;;;;;0.20;94.80;102723.35;107437;1254;60721;-78
2023/02/04 06:41:50;;;;;;;5.10;2.40;;;;;;;0.18;94.72;102730.77;107826;1252;62518;-78
2023/02/04 06:44:27;;;;;;;5.50;2.60;;;;;;;0.15;94.80;102727.70;107053;1259;75948;-77
2023/02/04 06:46:55;;;;;;;4.50;2.60;;;;;;;0.13;94.85;102725.37;107275;1254;72348;-76
2023/02/04 06:49:24;;;;;;;5.40;2.70;;;;;;;0.11;94.93;102728.55;106942;1254;71334;-79
2023/02/04 06:52:04;;;;;;;5.60;2.40;;;;;;;0.10;95.01;102729.46;107255;1252;59703;-77
2023/02/04 06:54:31;;;;;;;6.00;2.30;;;;;;;0.10;95.18;102736.09;107156;1253;61225;-78
2023/02/04 06:57:05;;;;;;;5.20;2.30;;;;;;;0.10;95.37;102737.13;107345;1254;74683;-77
2023/02/04 06:59:46;;;;;;;5.40;2.60;;;;;;;0.11;95.21;102741.80;107923;1253;71326;-77
2023/02/04 07:02:13;;;;;;;3.80;2.60;;;;;;;0.09;94.95;102747.60;107209;1252;72377;-77
2023/02/04 07:04:42;;;;;;;4.40;2.80;;;;;;;0.06;94.93;102756.42;107026;1253;61645;-78
2023/02/04 07:07:13;;;;;;;5.50;3.90;;;;;;;0.03;94.94;102764.02;107564;1254;61206;-78
2023/02/04 07:09:41;;;;;;;10.30;6.20;;;;;;;0.01;94.95;102770.01;107279;1256;73177;-76
2023/02/04 07:12:08;;;;;;;7.90;5.40;;;;;;;-0.02;94.95;102775.47;107290;1253;70332;-76
2023/02/04 07:14:35;;;;;;;9.20;5.60;;;;;;;-0.02;95.15;102779.84;107500;1253;72334;-77
2023/02/04 07:17:02;;;;;;;7.80;5.30;;;;;;;-0.02;95.24;102785.39;107271;1252;61510;-78
2023/02/04 07:19:42;;;;;;;6.50;3.90;;;;;;;0.01;95.45;102792.60;107879;1257;61932;-77
2023/02/04 07:22:12;;;;;;;5.60;3.40;;;;;;;0.05;95.35;102795.59;107341;1252;73165;-78
2023/02/04 07:24:42;;;;;;;4.40;2.70;;;;;;;0.08;95.40;102799.67;107335;1253;69963;-77
2023/02/04 07:27:09;;;;;;;6.40;3.40;;;;;;;0.12;95.50;102797.23;108034;1252;72321;-77
2023/02/04 07:29:36;;;;;;;6.70;4.00;;;;;;;0.17;95.49;102794.98;107264;1252;61748;-77
2023/02/04 07:32:04;;;;;;;6.80;4.40;;;;;;;0.23;95.65;102800.33;107318;1253;61160;-76
2023/02/04 07:34:31;;;;;;;6.40;4.20;;;;;;;0.31;95.86;102800.40;107059;1254;73312;-76
2023/02/04 07:36:58;;;;;;;5.80;4.10;;;;;;;0.39;95.92;102799.06;108102;1252;69656;-77
2023/02/04 07:39:25;;;;;;;5.60;3.70;;;;;;;0.45;95.60;102808.23;107444;1253;71028;-78
2023/02/04 07:41:54;;;;;;;9.80;4.30;;;;;;;0.54;96.02;102811.55;107297;1252;61335;-78
2023/02/04 07:44:21;;;;;;;7.50;4.30;;;;;;;0.66;96.11;102813.55;107596;1252;61349;-77
2023/02/04 07:46:48;;;;;;;8.20;4.50;;;;;;;0.78;96.20;102820.20;107306;1254;72446;-77
2023/02/04 07:49:15;;;;;;;6.10;3.70;;;;;;;0.90;96.27;102829.16;107224;1252;72633;-77
2023/02/04 07:51:42;;;;;;;6.10;3.60;;;;;;;1.03;96.19;102832.66;107372;1254;71253;-77
2023/02/04 07:54:09;;;;;;;8.80;4.10;;;;;;;1.12;95.97;102832.64;107909;1252;59648;-76
2023/02/04 07:56:36;;;;;;;7.20;3.80;;;;;;;1.21;95.62;102832.98;107145;1254;61062;-78
2023/02/04 07:59:03;;;;;;;8.00;4.50;;;;;;;1.32;95.73;102836.23;107649;1253;73138;-76
2023/02/04 08:01:30;;;;;;;7.20;4.30;;;;;;;1.41;95.57;102843.52;108388;1254;70251;-75
2023/02/04 08:03:57;;;;;;;6.40;3.80;;;;;;;1.48;95.00;102848.48;107728;1255;70699;-75
2023/02/04 08:06:24;;;;;;;7.10;4.30;;;;;;;1.53;94.79;102851.59;107597;1254;61307;-77
2023/02/04 08:08:51;;;;;;;7.90;4.40;;;;;;;1.60;94.58;102856.87;107767;1254;61198;-78
2023/02/04 08:11:18;;;;;;;5.50;3.40;;;;;;;1.67;94.54;102857.98;108097;1252;73118;-77
2023/02/04 08:13:45;;;;;;;4.90;3.00;;;;;;;1.72;94.21;102860.20;107442;1253;71059;-76
2023/02/04 08:16:12;;;;;;;5.10;3.00;;;;;;;1.77;94.27;102856.69;107245;1252;71446;-75
2023/02/04 08:18:39;;;;;;;5.70;2.90;;;;;;;1.85;94.01;102860.55;107368;1252;61349;-75
2023/02/04 08:21:06;;;;;;;6.10;3.20;;;;;;;1.95;94.09;102857.65;107546;1252;59841;-75
2023/02/04 08:23:34;;;;;;;4.80;3.00;;;;;;;2.08;94.12;102862.36;107443;1253;74680;-75
2023/02/04 08:26:01;;;;;;;5.20;2.90;;;;;;;2.20;93.94;102865.17;107808;1252;68682;-75
2023/02/04 08:28:27;;;;;;;5.90;3.50;;;;;;;2.30;93.89;102869.94;107440;1254;74016;-76
2023/02/04 08:30:55;;;;;;;7.40;3.50;;;;;;;2.42;93.65;102871.52;108120;1253;61302;-77
2023/02/04 08:33:22;;;;;;;6.50;3.80;;;;;;;2.53;93.47;102866.48;107983;1252;61589;-76
2023/02/04 08:35:51;;;;;;;7.40;4.60;;;;;;;2.64;93.34;102862.84;107767;1254;74936;-76
2023/02/04 08:38:19;;;;;;;10.10;5.00;;;;;;;2.73;92.60;102867.84;107332;1258;71369;-76
2023/02/04 08:40:46;;;;;;;7.00;3.90;;;;;;;2.79;92.42;102867.20;107569;1252;73137;-76
2023/02/04 08:43:13;;;;;;;8.70;3.90;;;;;;;2.85;91.57;102860.81;107362;1255;61353;-77
2023/02/04 08:45:40;;;;;;;10.20;4.20;;;;;;;2.86;90.86;102860.05;107966;1252;59387;-76
2023/02/04 08:48:08;;;;;;;16.10;6.40;;;;;;;2.88;90.97;102859.66;107480;1253;72857;-76
2023/02/04 08:50:37;;;;;;;13.10;5.30;;;;;;;2.93;91.27;102866.95;107684;1252;71970;-77
2023/02/04 08:53:04;;;;;;;8.10;3.40;;;;;;;2.95;90.73;102872.27;107632;1256;72217;-77
2023/02/04 08:55:31;;;;;;;5.80;2.90;;;;;;;2.96;90.37;102874.13;107661;1254;61249;-77
2023/02/04 08:58:00;;;;;;;5.00;2.90;;;;;;;3.00;90.73;102876.39;107688;1252;61761;-77
2023/02/04 09:00:27;;;;;;;4.60;2.70;;;;;;;3.05;90.62;102879.83;107770;1254;72526;-77
2023/02/04 09:02:54;;;;;;;4.80;2.90;;;;;;;3.08;90.21;102884.05;107905;1254;70209;-76
2023/02/04 09:05:20;;;;;;;5.50;2.40;;;;;;;3.12;90.31;102889.11;107610;1253;72022;-76
2023/02/04 09:07:48;;;;;;;6.20;2.80;;;;;;;3.17;89.99;102888.33;107829;1253;62246;-77
2023/02/04 09:10:16;;;;;;;5.20;2.70;;;;;;;3.24;90.03;102892.20;107551;1253;59367;-76
2023/02/04 09:12:43;;;;;;;5.60;3.20;;;;;;;3.29;89.82;102891.61;107425;1253;74908;-76
2023/02/04 09:15:11;;;;;;;5.30;3.10;;;;;;;3.33;88.83;102897.77;107805;1252;70973;-77
2023/02/04 09:17:38;;;;;;;5.70;3.00;;;;;;;3.32;88.27;102903.39;107664;1252;73944;-77
2023/02/04 09:20:05;;;;;;;4.50;2.90;;;;;;;3.33;88.12;102913.83;107480;1254;61717;-77
2023/02/04 09:22:33;;;;;;;5.20;3.40;;;;;;;3.38;88.39;102916.55;107659;1254;61166;-77
2023/02/04 09:24:59;;;;;;;5.60;3.10;;;;;;;3.42;87.90;102916.52;107848;1256;73489;-77
2023/02/04 09:27:26;;;;;;;4.10;2.70;;;;;;;3.47;87.57;102918.59;108627;1253;71246;-77
2023/02/04 09:29:53;;;;;;;4.30;2.50;;;;;;;3.50;86.69;102921.94;109019;1253;72668;-77
2023/02/04 09:32:20;;;;;;;5.50;2.50;;;;;;;3.53;86.89;102926.49;108930;1253;59674;-76
2023/02/04 09:34:47;;;;;;;3.90;2.00;;;;;;;3.62;86.91;102930.78;108422;1252;61116;-77
2023/02/04 09:37:15;;;;;;;3.60;1.80;;;;;;;3.71;86.58;102932.30;108378;1252;73533;-77
2023/02/04 09:39:42;;;;;;;4.30;2.10;;;;;;;3.79;86.26;102930.33;107710;1254;69960;-76
2023/02/04 09:42:19;;;;;;;3.90;1.90;;;;;;;3.91;86.14;102933.94;107452;1254;72638;-76
2023/02/04 09:44:46;;;;;;;4.60;1.90;;;;;;;4.00;85.44;102931.02;107915;1253;61532;-75
2023/02/04 09:47:14;;;;;;;3.80;2.40;;;;;;;4.10;85.09;102939.46;107600;1254;61147;-76
2023/02/04 09:49:45;;;;;;;4.20;2.50;;;;;;;4.17;84.18;102937.35;108089;1253;74718;-76
2023/02/04 09:52:16;;;;;;;3.40;1.60;;;;;;;4.20;82.58;102939.30;107932;1252;70959;-77
2023/02/04 09:54:43;;;;;;;3.40;2.00;;;;;;;4.23;82.62;102946.32;107529;1254;71237;-77
2023/02/04 09:57:19;;;;;;;3.80;1.70;;;;;;;4.29;82.18;102951.27;107868;1258;61276;-76
2023/02/04 09:59:48;;;;;;;4.20;1.80;;;;;;;4.35;81.72;102959.05;107832;1256;59301;-76
2023/02/04 10:02:25;;;;;;;3.00;1.70;;;;;;;4.43;82.08;102961.79;107870;1254;74338;-75
2023/02/04 10:04:56;;;;;;;4.50;1.80;;;;;;;4.52;81.59;102954.85;107621;1254;70361;-75
2023/02/04 10:07:25;;;;;;;3.40;1.40;;;;;;;4.59;80.69;102957.98;107447;1254;71519;-76
2023/02/04 10:09:53;;;;;;;3.00;1.60;;;;;;;4.64;79.86;102958.59;107536;1252;61221;-75
2023/02/04 10:12:20;;;;;;;3.90;1.80;;;;;;;4.65;79.58;102962.91;107831;1253;61343;-75
2023/02/04 10:14:47;;;;;;;4.20;1.70;;;;;;;4.69;79.03;102970.59;107842;1253;74408;-75
2023/02/04 10:17:23;;;;;;;3.30;1.50;;;;;;;4.76;79.80;102976.20;107553;1254;71183;-76
2023/02/04 10:19:58;;;;;;;2.30;1.30;;;;;;;4.84;79.07;102983.64;108365;1254;72493;-76
2023/02/04 10:22:25;;;;;;;4.00;1.70;;;;;;;4.88;77.73;102988.73;108371;1252;59437;-75
2023/02/04 10:24:52;;;;;;;3.50;1.80;;;;;;;4.99;78.27;102991.47;108579;1253;61126;-76
2023/02/04 10:27:18;;;;;;;2.70;1.40;;;;;;;5.09;77.77;102993.41;107638;1254;74366;-75
2023/02/04 10:29:56;;;;;;;3.20;1.50;;;;;;;5.17;76.64;102992.64;107398;1254;69513;-77
2023/02/04 10:32:28;;;;;;;5.70;1.60;;;;;;;5.28;76.85;102993.20;107579;1253;73316;-76
2023/02/04 10:35:01;;;;;;;3.80;1.80;;;;;;;5.41;76.84;102992.51;107792;1252;61244;-76
2023/02/04 10:37:28;;;;;;;3.70;1.80;;;;;;;5.50;76.67;102996.39;108206;1253;60435;-79
2023/02/04 10:39:55;;;;;;;3.10;1.60;;;;;;;5.56;75.42;102993.27;107742;1254;73635;-79
2023/02/04 10:42:24;;;;;;;4.80;2.40;;;;;;;5.63;75.66;102994.28;107532;1253;69694;-77
2023/02/04 10:44:52;;;;;;;3.30;1.70;;;;;;;5.71;75.30;102994.67;107609;1254;70849;-75
2023/02/04 10:47:20;;;;;;;3.70;1.50;;;;;;;5.78;74.82;103000.64;107219;1254;61205;-76
2023/02/04 10:50:06;;;;;;;3.70;1.70;;;;;;;5.85;74.29;103002.71;108316;1253;61237;-77
2023/02/04 10:52:36;;;;;;;3.70;1.60;;;;;;;5.92;75.45;103011.10;107566;1254;74738;-76
2023/02/04 10:55:06;;;;;;;4.50;1.40;;;;;;;5.91;73.92;103013.44;107949;1256;69970;-76
2023/02/04 10:57:38;;;;;;;3.00;1.50;;;;;;;5.80;73.04;103011.06;107950;1254;72415;-77
2023/02/04 11:00:13;;;;;;;3.10;1.60;;;;;;;5.74;73.29;103006.48;107658;1254;61520;-77
2023/02/04 11:02:41;;;;;;;4.20;1.70;;;;;;;5.71;73.63;103006.48;107884;1253;61078;-76
2023/02/04 11:05:24;;;;;;;3.10;1.50;;;;;;;5.72;74.14;103003.26;108299;1254;73550;-75
2023/02/04 11:07:51;;;;;;;3.70;1.60;;;;;;;5.68;73.36;103000.98;108003;1254;70049;-75
2023/02/04 11:10:27;;;;;;;4.00;1.60;;;;;;;5.59;73.26;102999.23;107722;1254;72367;-75
2023/02/04 11:12:53;;;;;;;4.90;1.60;;;;;;;5.54;73.31;103003.19;108090;1254;61778;-76
2023/02/04 11:16:14;;;;;;;4.60;1.60;;;;;;;5.49;73.48;103006.46;107931;1253;61359;-76
2023/02/04 11:18:52;;;;;;;3.20;1.50;;;;;;;5.52;73.93;103013.34;107331;1259;74496;-76
2023/02/04 11:21:31;;;;;;;2.50;1.40;;;;;;;5.54;73.84;103013.92;107886;1256;69663;-75
2023/02/04 11:24:04;;;;;;;3.20;1.60;;;;;;;5.54;73.95;103019.34;107828;1254;72897;-76
2023/02/04 11:26:37;;;;;;;3.30;1.70;;;;;;;5.59;74.06;103017.13;107871;1254;61852;-76
2023/02/04 11:29:03;;;;;;;3.40;1.60;;;;;;;5.67;73.59;103020.23;107657;1253;61225;-75
2023/02/04 11:31:33;;;;;;;2.10;1.30;;;;;;;5.73;73.90;103016.17;107917;1254;76037;-76